Time;durP1;ratioP1;P1;durP2;ratioP2;P2;SDS_P1;SDS_P2;PMS_P1;PMS_P2;Temp;Humidity;BMP_temperature;BMP_pressure;BME280_temperature;BME280_humidity;BME280_pressure;Samples;Min_cycle;Max_cycle;Signal;HPM_P1;HPM_P2
2021/10/25 00:00:36;;;;;;;9.07;5.40;;;;;;;6.08;74.63;100730.41;5078407;28;20499;-76
2021/10/25 00:03:03;;;;;;;5.47;4.97;;;;;;;5.87;75.27;100720.19;5063020;28;20460;-76
2021/10/25 00:05:29;;;;;;;7.20;4.63;;;;;;;5.88;75.55;100719.22;5061443;28;20499;-76
2021/10/25 00:07:56;;;;;;;4.80;4.30;;;;;;;5.87;76.17;100720.19;5077830;28;20546;-76
2021/10/25 00:10:23;;;;;;;5.50;5.00;;;;;;;5.86;75.92;100715.81;5069323;28;20437;-76
2021/10/25 00:12:50;;;;;;;5.90;4.67;;;;;;;5.79;75.67;100720.66;5055524;28;20847;-75
2021/10/25 00:15:18;;;;;;;6.30;4.67;;;;;;;5.82;75.60;100722.28;5079159;28;20527;-76
2021/10/25 00:17:45;;;;;;;5.97;4.73;;;;;;;5.72;76.15;100727.31;5076662;28;20520;-77
2021/10/25 00:20:13;;;;;;;7.77;5.13;;;;;;;5.76;75.39;100728.81;5075648;28;20883;-76
2021/10/25 00:22:40;;;;;;;5.70;5.10;;;;;;;5.65;75.66;100715.38;5064771;28;20475;-76
2021/10/25 00:25:07;;;;;;;6.60;5.90;;;;;;;5.51;76.22;100718.91;5067085;28;20452;-77
2021/10/25 00:27:34;;;;;;;8.40;5.40;;;;;;;5.48;76.39;100708.50;5075659;28;20476;-77
2021/10/25 00:30:01;;;;;;;5.70;5.10;;;;;;;5.55;76.04;100712.44;5065219;28;20520;-76
2021/10/25 00:32:29;;;;;;;6.80;5.03;;;;;;;5.61;75.50;100720.03;5076927;28;20516;-76
2021/10/25 00:34:55;;;;;;;6.40;5.00;;;;;;;5.45;76.09;100713.97;5072992;28;20937;-76
2021/10/25 00:37:22;;;;;;;5.60;4.97;;;;;;;5.22;77.32;100710.13;5082439;28;20539;-76
2021/10/25 00:39:48;;;;;;;10.43;4.87;;;;;;;5.23;77.07;100715.31;5065145;28;20481;-76
2021/10/25 00:42:15;;;;;;;6.53;4.50;;;;;;;5.23;76.90;100712.69;5073748;28;20502;-76
2021/10/25 00:44:42;;;;;;;9.10;5.97;;;;;;;5.20;76.83;100710.22;5084972;28;20459;-77
2021/10/25 00:47:09;;;;;;;6.90;5.93;;;;;;;5.25;76.19;100712.59;5075035;28;20508;-77
2021/10/25 00:49:36;;;;;;;7.80;5.33;;;;;;;5.03;77.56;100713.03;5069416;28;20448;-76
2021/10/25 00:52:04;;;;;;;5.97;5.20;;;;;;;5.02;77.05;100709.56;5071908;28;20935;-76
2021/10/25 00:54:34;;;;;;;8.37;5.40;;;;;;;4.96;76.76;100707.25;5069521;28;20531;-76
2021/10/25 00:57:03;;;;;;;9.33;5.53;;;;;;;5.05;76.60;100705.84;5076675;28;20491;-76
2021/10/25 00:59:29;;;;;;;7.23;4.97;;;;;;;4.98;76.11;100705.41;5068860;28;20450;-76
2021/10/25 01:01:56;;;;;;;6.40;5.00;;;;;;;4.81;77.68;100709.06;5074469;28;20567;-77
2021/10/25 01:04:23;;;;;;;7.80;5.07;;;;;;;4.83;77.99;100707.16;5067005;28;20452;-77
2021/10/25 01:06:51;;;;;;;7.47;5.63;;;;;;;4.75;78.68;100714.72;5081442;28;20475;-77
2021/10/25 01:09:18;;;;;;;7.63;5.60;;;;;;;4.85;78.54;100715.88;5065624;28;20556;-77
2021/10/25 01:11:45;;;;;;;7.70;5.60;;;;;;;4.73;78.23;100711.31;5079796;28;20471;-77
2021/10/25 01:14:11;;;;;;;7.70;5.40;;;;;;;4.66;79.26;100710.81;5069983;28;20508;-76
2021/10/25 01:16:38;;;;;;;6.73;6.03;;;;;;;4.82;78.42;100716.03;5063845;28;20560;-77
2021/10/25 01:19:04;;;;;;;9.33;5.40;;;;;;;4.93;78.56;100709.25;5065719;28;21059;-77
2021/10/25 01:21:33;;;;;;;10.73;5.27;;;;;;;4.82;79.01;100702.78;5076216;28;20642;-76
2021/10/25 01:24:00;;;;;;;6.17;5.07;;;;;;;4.84;78.52;100703.59;5065173;28;20453;-76
2021/10/25 01:26:27;;;;;;;8.83;5.93;;;;;;;4.84;78.09;100710.66;5065807;28;20469;-76
2021/10/25 01:28:54;;;;;;;7.30;5.13;;;;;;;4.67;77.91;100706.38;5074537;28;20547;-76
2021/10/25 01:31:22;;;;;;;7.83;5.53;;;;;;;4.68;78.67;100705.44;5081909;28;20472;-76
2021/10/25 01:33:50;;;;;;;7.40;5.80;;;;;;;4.68;79.32;100708.06;5083381;28;20543;-76
2021/10/25 01:36:17;;;;;;;11.13;6.43;;;;;;;4.79;79.55;100708.31;5077669;28;20565;-76
2021/10/25 01:38:45;;;;;;;6.67;6.00;;;;;;;5.17;78.95;100698.94;5065107;28;20480;-76
2021/10/25 01:41:12;;;;;;;7.77;6.40;;;;;;;5.35;77.04;100695.16;5067635;28;20895;-76
2021/10/25 01:43:38;;;;;;;7.43;5.23;;;;;;;5.13;77.27;100700.94;5083656;28;20976;-76
2021/10/25 01:46:06;;;;;;;9.63;6.27;;;;;;;4.97;77.25;100698.38;5073646;28;20592;-76
2021/10/25 01:48:33;;;;;;;7.00;6.17;;;;;;;4.86;77.83;100693.75;5063137;28;20445;-76
2021/10/25 01:50:59;;;;;;;8.20;5.87;;;;;;;4.90;77.93;100700.53;5078030;28;20519;-76
2021/10/25 01:53:26;;;;;;;10.00;6.27;;;;;;;5.07;78.73;100688.06;5063930;28;20444;-76
2021/10/25 01:56:00;;;;;;;8.07;5.77;;;;;;;4.97;77.74;100684.28;5078089;28;20476;-75
2021/10/25 01:58:27;;;;;;;7.97;6.27;;;;;;;5.12;78.28;100693.06;5075158;28;20510;-76
2021/10/25 02:00:54;;;;;;;7.60;6.80;;;;;;;5.54;77.90;100692.19;5064018;28;20495;-76
2021/10/25 02:03:21;;;;;;;8.33;5.80;;;;;;;5.50;75.90;100693.31;5070549;28;20475;-76
2021/10/25 02:05:47;;;;;;;9.17;6.10;;;;;;;5.50;77.42;100693.31;5083139;28;20550;-76
2021/10/25 02:08:14;;;;;;;12.43;7.60;;;;;;;5.33;76.61;100689.09;5077251;28;20461;-76
2021/10/25 02:10:41;;;;;;;6.87;6.10;;;;;;;5.12;77.34;100688.66;5062765;28;20529;-76
2021/10/25 02:13:11;;;;;;;9.20;5.73;;;;;;;4.78;78.03;100685.41;5078173;28;20934;-76
2021/10/25 02:15:37;;;;;;;9.70;6.10;;;;;;;4.61;78.27;100704.09;5082563;28;20472;-76
2021/10/25 02:18:04;;;;;;;8.20;6.10;;;;;;;4.38;79.61;100701.00;5081248;28;20478;-76
2021/10/25 02:20:31;;;;;;;7.13;6.17;;;;;;;4.44;79.58;100697.13;5075563;28;20488;-76
2021/10/25 02:22:58;;;;;;;7.83;6.77;;;;;;;4.49;79.57;100689.78;5066132;28;20513;-76
2021/10/25 02:25:24;;;;;;;13.47;6.80;;;;;;;4.46;80.29;100689.94;5072512;28;21772;-76
2021/10/25 02:27:51;;;;;;;10.43;7.20;;;;;;;4.51;80.45;100686.13;5080065;28;20515;-76
2021/10/25 02:30:19;;;;;;;11.30;6.93;;;;;;;4.59;80.64;100685.66;5081127;28;20444;-76
2021/10/25 02:32:46;;;;;;;7.33;6.50;;;;;;;4.67;80.17;100686.03;5065679;28;20461;-75
2021/10/25 02:35:13;;;;;;;10.73;7.17;;;;;;;4.64;80.42;100678.28;5067193;28;20444;-76
2021/10/25 02:37:39;;;;;;;7.60;6.50;;;;;;;4.79;80.09;100680.94;5082472;28;20511;-76
2021/10/25 02:40:07;;;;;;;8.60;7.33;;;;;;;4.81;79.64;100677.28;5063309;28;20491;-76
2021/10/25 02:42:34;;;;;;;11.13;7.23;;;;;;;4.77;79.54;100669.59;5062463;28;20472;-76
2021/10/25 02:45:01;;;;;;;10.00;7.07;;;;;;;4.70;80.06;100669.09;5066581;28;20436;-76
2021/10/25 02:47:29;;;;;;;9.87;7.27;;;;;;;4.79;80.15;100676.50;5079861;28;20486;-76
2021/10/25 02:49:57;;;;;;;13.07;7.97;;;;;;;4.92;80.32;100671.31;5080259;28;20456;-76
2021/10/25 02:52:24;;;;;;;8.53;7.57;;;;;;;4.95;79.93;100668.47;5073978;28;20476;-77
2021/10/25 02:54:51;;;;;;;9.90;7.43;;;;;;;4.88;79.78;100668.00;5081436;28;20463;-77
2021/10/25 02:57:18;;;;;;;7.87;6.97;;;;;;;4.94;80.10;100663.28;5061975;28;20472;-77
2021/10/25 02:59:44;;;;;;;12.30;8.60;;;;;;;5.00;79.93;100661.09;5063603;28;20527;-76
2021/10/25 03:02:11;;;;;;;8.40;7.27;;;;;;;5.18;79.56;100655.59;5065692;28;20518;-77
2021/10/25 03:04:39;;;;;;;9.63;8.67;;;;;;;5.14;79.02;100652.28;5081238;28;20456;-77
2021/10/25 03:07:06;;;;;;;8.83;7.20;;;;;;;5.05;79.78;100656.38;5062896;28;20564;-77
2021/10/25 03:09:32;;;;;;;8.70;7.50;;;;;;;4.94;79.82;100652.69;5068167;28;20943;-76
2021/10/25 03:12:00;;;;;;;9.00;6.80;;;;;;;4.98;79.57;100651.53;5081641;28;21000;-76
2021/10/25 03:14:26;;;;;;;11.40;8.93;;;;;;;4.87;80.33;100658.34;5067273;28;20527;-76
2021/10/25 03:16:53;;;;;;;10.53;8.57;;;;;;;4.96;79.98;100651.63;5073730;28;21025;-77
2021/10/25 03:19:20;;;;;;;8.97;7.27;;;;;;;5.24;79.59;100653.41;5072646;28;20475;-77
2021/10/25 03:21:49;;;;;;;11.20;7.67;;;;;;;5.09;78.57;100641.13;5068813;28;20505;-77
2021/10/25 03:24:15;;;;;;;10.30;7.23;;;;;;;5.04;79.33;100637.91;5079277;28;20449;-76
2021/10/25 03:26:43;;;;;;;7.97;7.17;;;;;;;5.25;78.82;100643.66;5076352;28;20539;-77
2021/10/25 03:29:09;;;;;;;10.23;7.50;;;;;;;5.19;79.17;100642.25;5078759;28;20458;-76
2021/10/25 03:31:36;;;;;;;12.00;7.77;;;;;;;5.30;78.80;100636.28;5069437;28;20503;-77
2021/10/25 03:34:03;;;;;;;9.60;7.03;;;;;;;5.26;78.23;100632.97;5064448;28;20520;-77
2021/10/25 03:36:31;;;;;;;8.50;7.47;;;;;;;5.38;78.63;100636.66;5066078;28;20548;-77
2021/10/25 03:38:59;;;;;;;7.97;7.00;;;;;;;5.48;77.88;100631.59;5062396;28;20457;-77
2021/10/25 03:41:30;;;;;;;12.93;7.77;;;;;;;5.51;77.41;100625.25;5062466;28;20477;-77
2021/10/25 03:44:01;;;;;;;8.20;7.30;;;;;;;5.76;77.44;100627.97;5075380;28;20444;-76
2021/10/25 03:46:34;;;;;;;8.20;6.80;;;;;;;5.91;77.86;100620.81;5080708;28;20487;-76
2021/10/25 03:49:06;;;;;;;9.10;7.57;;;;;;;6.08;77.42;100626.88;5063763;28;20465;-76
2021/10/25 03:51:33;;;;;;;8.10;7.00;;;;;;;6.25;77.11;100615.97;5074539;28;20491;-76
2021/10/25 03:54:16;;;;;;;12.83;6.97;;;;;;;6.50;75.75;100619.59;5082300;28;20872;-77
2021/10/25 03:56:56;;;;;;;11.47;7.23;;;;;;;6.58;75.61;100619.94;5055757;28;20480;-76
2021/10/25 03:59:35;;;;;;;10.40;6.50;;;;;;;6.74;74.95;100623.22;5076794;28;20485;-77
2021/10/25 04:26:57;;;;;;;5.73;5.13;;;;;;;7.44;71.81;100619.16;4994199;28;20471;-77
2021/10/25 04:29:26;;;;;;;7.63;4.90;;;;;;;7.46;71.78;100619.88;4991519;28;20789;-77
2021/10/25 04:31:53;;;;;;;6.03;4.80;;;;;;;7.50;71.42;100615.22;4982726;28;20476;-77
2021/10/25 04:34:19;;;;;;;6.70;5.30;;;;;;;7.59;71.09;100619.84;4997802;28;20555;-77
2021/10/25 04:36:46;;;;;;;6.00;5.07;;;;;;;7.59;71.09;100613.69;5010858;28;20513;-78
2021/10/25 04:39:13;;;;;;;5.40;4.90;;;;;;;7.61;71.00;100614.44;5006878;28;20462;-77
2021/10/25 04:41:41;;;;;;;6.50;5.00;;;;;;;7.52;71.26;100613.28;4985002;28;20476;-81
2021/10/25 04:44:09;;;;;;;10.17;5.90;;;;;;;7.60;70.99;100613.56;4993588;28;21036;-78
2021/10/25 04:46:36;;;;;;;8.40;4.90;;;;;;;7.69;70.52;100612.91;5002353;28;20494;-78
2021/10/25 04:49:02;;;;;;;8.20;4.90;;;;;;;7.69;70.63;100617.34;4989477;28;20571;-78
2021/10/25 04:51:31;;;;;;;7.07;5.17;;;;;;;7.67;70.62;100622.81;4989058;28;20487;-78
2021/10/25 04:53:58;;;;;;;5.90;5.13;;;;;;;7.71;70.32;100618.94;4994071;28;20501;-78
2021/10/25 04:56:25;;;;;;;8.07;4.93;;;;;;;7.78;70.20;100616.69;4988324;28;20558;-79
2021/10/25 04:58:51;;;;;;;8.07;5.13;;;;;;;7.81;69.99;100619.13;5070433;28;20459;-79
2021/10/25 05:01:19;;;;;;;7.10;5.27;;;;;;;7.77;70.03;100614.13;5064572;28;20564;-80
2021/10/25 05:03:46;;;;;;;6.07;4.43;;;;;;;7.69;70.34;100609.38;5061889;28;20500;-79
2021/10/25 05:06:17;;;;;;;5.90;4.70;;;;;;;7.73;70.22;100608.19;5060333;28;20485;-80
2021/10/25 05:08:44;;;;;;;5.63;4.67;;;;;;;7.73;70.16;100600.22;5056028;28;20472;-82
2021/10/25 05:11:11;;;;;;;6.07;5.40;;;;;;;7.70;70.28;100592.44;5058753;28;20491;-82
2021/10/25 05:13:38;;;;;;;5.73;5.20;;;;;;;7.71;70.27;100597.66;5065891;28;20547;-82
2021/10/25 05:16:06;;;;;;;7.43;4.93;;;;;;;7.71;70.23;100596.81;5064254;28;20846;-80
2021/10/25 05:18:34;;;;;;;4.50;4.10;;;;;;;7.71;70.21;100589.69;5047367;28;20488;-81
2021/10/25 05:21:00;;;;;;;5.87;5.30;;;;;;;7.65;70.35;100597.25;5053227;28;20509;-79
2021/10/25 05:23:27;;;;;;;6.73;4.50;;;;;;;7.71;70.16;100595.00;5052404;28;20457;-86
2021/10/25 05:25:54;;;;;;;6.90;4.17;;;;;;;7.79;69.91;100594.41;5065943;28;20464;-85
2021/10/25 05:28:20;;;;;;;7.20;4.90;;;;;;;7.82;69.82;100596.84;5057543;28;20774;-85
2021/10/25 05:30:47;;;;;;;7.03;5.73;;;;;;;7.82;69.76;100596.84;5065814;28;20508;-86
2021/10/25 05:33:14;;;;;;;6.03;5.10;;;;;;;7.70;70.33;100587.13;5042881;28;20827;-86
2021/10/25 05:35:42;;;;;;;7.90;5.60;;;;;;;7.68;70.27;100589.91;5054324;28;21020;-86
2021/10/25 05:38:09;;;;;;;7.50;4.80;;;;;;;7.73;70.08;100590.41;5063496;28;20485;-77
2021/10/25 05:40:38;;;;;;;8.13;5.13;;;;;;;7.98;71.63;100579.72;5069526;28;20463;-77
2021/10/25 05:43:04;;;;;;;8.77;5.10;;;;;;;7.86;69.89;100585.03;5077629;28;20448;-78
2021/10/25 05:45:31;;;;;;;7.17;5.57;;;;;;;7.85;69.82;100587.81;5081335;28;20480;-78
2021/10/25 05:47:58;;;;;;;7.20;5.33;;;;;;;7.88;69.81;100580.44;5083278;28;20483;-77
2021/10/25 05:50:25;;;;;;;7.10;5.27;;;;;;;7.81;70.26;100581.00;5082417;28;20498;-77
2021/10/25 05:52:53;;;;;;;6.33;4.60;;;;;;;7.91;70.00;100572.19;5083736;28;20499;-77
2021/10/25 05:55:23;;;;;;;9.87;5.30;;;;;;;7.87;69.95;100573.41;5082521;28;20455;-77
2021/10/25 05:57:51;;;;;;;7.20;4.60;;;;;;;8.00;69.37;100570.69;5066835;28;20512;-78
2021/10/25 06:00:20;;;;;;;5.63;5.13;;;;;;;7.99;69.45;100581.44;5043240;28;20461;-78
2021/10/25 06:02:52;;;;;;;5.20;4.70;;;;;;;8.03;69.32;100580.25;5057142;28;20507;-77
2021/10/25 06:05:20;;;;;;;5.57;4.53;;;;;;;8.13;69.13;100580.41;5082992;28;20439;-77
2021/10/25 06:07:47;;;;;;;11.53;5.30;;;;;;;8.04;69.13;100579.28;5083815;28;20439;-78
2021/10/25 06:10:17;;;;;;;8.40;5.27;;;;;;;8.08;69.13;100578.06;5082817;28;20481;-77
2021/10/25 06:12:45;;;;;;;6.30;4.57;;;;;;;8.08;69.01;100588.72;5081285;28;20522;-77
2021/10/25 06:15:17;;;;;;;6.70;4.80;;;;;;;8.17;69.06;100581.84;5083177;28;20937;-77
2021/10/25 06:17:53;;;;;;;6.20;5.53;;;;;;;8.09;69.05;100575.31;5082739;28;20554;-76
2021/10/25 06:20:20;;;;;;;6.47;5.17;;;;;;;8.07;69.24;100577.25;5081276;28;20522;-77
2021/10/25 06:22:47;;;;;;;8.70;5.07;;;;;;;8.15;68.82;100581.13;5083562;28;20456;-77
2021/10/25 06:25:16;;;;;;;6.50;4.50;;;;;;;8.08;69.27;100578.06;5083262;28;20479;-77
2021/10/25 06:27:43;;;;;;;5.83;4.57;;;;;;;7.89;69.67;100590.09;5082044;28;20445;-78
2021/10/25 06:30:11;;;;;;;5.47;4.80;;;;;;;8.17;69.13;100604.00;5082319;28;21095;-77
2021/10/25 06:32:38;;;;;;;4.90;4.40;;;;;;;8.13;69.14;100607.88;5082583;28;21017;-77
2021/10/25 06:35:05;;;;;;;7.17;4.57;;;;;;;8.17;69.20;100608.50;5082614;28;20452;-77
2021/10/25 06:37:36;;;;;;;6.80;5.10;;;;;;;8.15;69.19;100607.75;5083097;28;20476;-77
2021/10/25 06:40:06;;;;;;;7.00;5.13;;;;;;;8.17;69.11;100609.31;5082632;28;20462;-77
2021/10/25 06:42:34;;;;;;;6.20;4.67;;;;;;;8.05;69.66;100600.44;5081958;28;20440;-78
2021/10/25 06:45:02;;;;;;;7.90;4.77;;;;;;;8.18;69.43;100599.53;5081394;28;20441;-78
2021/10/25 06:47:29;;;;;;;7.70;5.13;;;;;;;8.16;68.88;100596.13;5068130;28;20472;-77
2021/10/25 06:49:55;;;;;;;8.97;5.83;;;;;;;8.21;68.91;100586.84;5063095;28;20452;-78
2021/10/25 06:52:22;;;;;;;6.53;4.83;;;;;;;8.09;69.31;100604.59;5062618;28;20476;-77
2021/10/25 06:54:49;;;;;;;7.17;4.40;;;;;;;8.06;69.20;100606.63;5062724;28;20506;-77
2021/10/25 06:57:16;;;;;;;5.80;4.63;;;;;;;8.10;69.02;100616.09;5061814;28;20487;-77
2021/10/25 06:59:44;;;;;;;9.20;5.10;;;;;;;8.11;69.30;100613.31;5062101;28;20818;-77
2021/10/25 07:02:12;;;;;;;6.00;5.40;;;;;;;8.18;68.84;100618.19;5061589;28;20500;-77
2021/10/25 07:04:39;;;;;;;7.60;4.50;;;;;;;8.03;69.41;100615.69;5064206;28;20505;-78
2021/10/25 07:07:06;;;;;;;6.73;4.97;;;;;;;8.24;68.76;100621.22;5082227;28;20471;-78
2021/10/25 07:09:33;;;;;;;7.43;6.07;;;;;;;8.24;68.47;100631.03;5082136;28;20836;-77
2021/10/25 07:12:00;;;;;;;5.97;5.37;;;;;;;8.04;68.78;100629.88;5081141;28;20478;-77
2021/10/25 07:14:30;;;;;;;8.87;5.93;;;;;;;7.93;68.99;100620.00;5071544;28;20492;-77
2021/10/25 07:17:11;;;;;;;12.27;6.20;;;;;;;7.79;69.63;100618.38;5061713;28;20858;-77
2021/10/25 07:19:52;;;;;;;6.27;5.37;;;;;;;7.89;69.98;100623.88;5061356;28;20499;-77
2021/10/25 07:22:47;;;;;;;6.27;5.00;;;;;;;8.57;68.41;100616.97;5062007;28;20476;-77
2021/10/25 08:01:15;;;;;;;7.60;3.50;;;;;;;16.94;45.20;100627.50;5018623;28;20486;-78
2021/10/25 08:06:29;;;;;;;6.00;3.30;;;;;;;19.02;38.87;100624.06;5024300;28;20475;-78
2021/10/25 08:09:06;;;;;;;3.63;2.77;;;;;;;18.20;40.01;100622.13;5081585;28;20447;-79
2021/10/25 08:11:38;;;;;;;4.27;3.20;;;;;;;17.94;41.09;100617.91;5081376;28;20555;-78
2021/10/25 08:14:08;;;;;;;4.10;3.70;;;;;;;17.70;41.09;100610.75;5081790;28;20833;-78
2021/10/25 08:16:46;;;;;;;5.00;2.90;;;;;;;17.73;40.92;100614.97;5081171;28;20470;-79
2021/10/25 08:22:02;;;;;;;3.83;2.93;;;;;;;17.69;40.76;100612.63;5084475;28;20456;-78
2021/10/25 08:24:30;;;;;;;5.20;2.83;;;;;;;17.44;41.16;100609.19;5081532;28;20932;-78
2021/10/25 08:26:57;;;;;;;5.80;3.00;;;;;;;16.64;43.48;100612.81;5081427;28;20547;-78
2021/10/25 08:29:23;;;;;;;3.23;2.90;;;;;;;15.41;45.56;100618.06;5081240;28;20466;-79
2021/10/25 08:31:56;;;;;;;4.27;3.23;;;;;;;16.26;44.43;100617.06;5080871;28;20538;-79
2021/10/25 08:39:52;;;;;;;5.37;2.80;;;;;;;18.30;40.34;100611.03;5080720;28;20490;-78
2021/10/25 08:42:20;;;;;;;5.00;3.13;;;;;;;17.61;41.59;100617.25;5081818;28;20507;-78
2021/10/25 08:44:49;;;;;;;7.23;3.30;;;;;;;17.42;41.59;100607.72;5085463;28;20967;-78
2021/10/25 08:47:18;;;;;;;4.90;2.63;;;;;;;16.96;42.52;100616.50;5084333;28;20479;-78
2021/10/25 08:49:45;;;;;;;3.90;3.13;;;;;;;17.59;41.41;100605.78;5084354;28;20459;-78
2021/10/25 08:52:13;;;;;;;7.30;3.33;;;;;;;16.34;44.31;100615.22;5085139;28;20495;-78
2021/10/25 08:54:41;;;;;;;6.53;2.93;;;;;;;15.29;47.10;100617.53;5084520;28;20428;-77
2021/10/25 08:57:08;;;;;;;5.60;3.03;;;;;;;15.40;46.31;100609.16;5084981;28;20493;-78
2021/10/25 08:59:35;;;;;;;6.13;3.53;;;;;;;17.15;43.11;100617.97;5084610;28;20539;-79
2021/10/25 09:02:09;;;;;;;4.00;2.93;;;;;;;16.65;43.12;100613.69;5083958;28;20467;-79
2021/10/25 09:04:36;;;;;;;5.13;3.30;;;;;;;17.09;42.77;100616.78;5084805;28;20455;-78
2021/10/25 09:07:03;;;;;;;8.80;3.70;;;;;;;18.34;40.64;100618.59;5084656;28;20499;-78
2021/10/25 09:09:31;;;;;;;4.50;3.27;;;;;;;18.58;39.43;100622.13;5083888;28;20534;-79
2021/10/25 09:11:59;;;;;;;4.37;3.17;;;;;;;16.69;43.58;100639.31;5084423;28;20510;-79
2021/10/25 09:14:26;;;;;;;5.20;3.60;;;;;;;17.06;43.00;100630.63;5085061;28;20502;-79
2021/10/25 09:16:57;;;;;;;8.53;3.40;;;;;;;16.74;42.88;100624.28;5070027;28;20881;-79
2021/10/25 09:19:24;;;;;;;5.53;3.00;;;;;;;17.38;41.95;100628.84;5063409;28;20950;-78
2021/10/25 09:21:52;;;;;;;4.43;3.10;;;;;;;16.06;44.32;100632.72;5064333;28;20484;-79
2021/10/25 09:24:19;;;;;;;4.80;3.10;;;;;;;16.09;45.32;100633.28;5063974;28;20445;-78
2021/10/25 09:26:58;;;;;;;4.83;3.30;;;;;;;16.17;43.85;100624.31;5064413;28;20835;-79
2021/10/25 09:29:26;;;;;;;5.20;3.30;;;;;;;16.53;44.40;100626.69;5064167;28;20448;-79
2021/10/25 09:31:56;;;;;;;6.50;3.10;;;;;;;17.36;42.56;100608.41;5063397;28;20473;-79
2021/10/25 09:34:34;;;;;;;4.00;2.70;;;;;;;18.36;40.77;100619.25;5064447;28;20479;-79
2021/10/25 09:37:06;;;;;;;4.37;3.10;;;;;;;19.64;38.28;100611.09;5064024;28;20485;-79
2021/10/25 09:39:41;;;;;;;8.13;4.73;;;;;;;18.58;39.24;100617.53;5063328;28;20526;-79
2021/10/25 09:42:44;;;;;;;4.60;3.57;;;;;;;17.66;40.50;100618.38;5063475;28;20632;-79
2021/10/25 09:45:30;;;;;;;4.40;3.00;;;;;;;17.81;40.92;100606.78;5063590;28;20440;-79
2021/10/25 09:51:07;;;;;;;6.70;3.80;;;;;;;15.85;44.32;100609.81;5001411;28;20479;-77
2021/10/25 09:53:36;;;;;;;4.03;3.20;;;;;;;16.71;43.50;100596.78;5001010;28;20450;-79
2021/10/25 09:56:03;;;;;;;9.30;3.83;;;;;;;16.47;43.61;100603.91;5001556;28;20503;-79
2021/10/25 09:58:43;;;;;;;5.63;3.30;;;;;;;16.17;45.17;100600.88;5001883;28;20558;-79
2021/10/25 10:01:13;;;;;;;4.57;3.57;;;;;;;15.67;45.38;100600.97;5000511;28;20499;-78
2021/10/25 10:03:40;;;;;;;3.90;3.07;;;;;;;16.40;44.05;100611.00;5001416;28;20466;-78
2021/10/25 10:06:06;;;;;;;4.70;3.60;;;;;;;16.84;43.13;100598.97;5001733;28;20494;-79
2021/10/25 10:08:34;;;;;;;4.50;3.70;;;;;;;17.46;43.08;100600.91;5001298;28;20436;-78
2021/10/25 10:11:01;;;;;;;5.30;3.10;;;;;;;17.55;41.70;100599.00;5001327;28;20479;-79
2021/10/25 10:13:28;;;;;;;4.30;3.50;;;;;;;17.69;40.83;100600.97;5023419;28;20516;-78
2021/10/25 10:15:58;;;;;;;5.10;3.30;;;;;;;17.93;40.65;100591.88;5039343;28;20533;-78
2021/10/25 10:18:27;;;;;;;8.33;3.80;;;;;;;18.16;40.77;100602.69;5040168;28;20490;-77
2021/10/25 10:20:56;;;;;;;8.57;3.80;;;;;;;16.90;42.67;100593.72;5039788;28;21017;-79
2021/10/25 10:23:24;;;;;;;5.60;3.80;;;;;;;16.98;43.78;100597.41;5040788;28;20902;-78
2021/10/25 10:25:53;;;;;;;4.40;3.33;;;;;;;16.77;44.06;100601.50;5070999;28;20721;-78
2021/10/25 10:28:21;;;;;;;13.40;4.00;;;;;;;16.98;43.30;100597.41;5083940;28;20420;-78
2021/10/25 10:30:50;;;;;;;5.70;4.00;;;;;;;17.01;43.87;100592.53;5081895;28;20503;-79
2021/10/25 10:33:18;;;;;;;7.00;4.43;;;;;;;16.85;43.38;100588.00;5083033;28;20475;-79
2021/10/25 10:35:46;;;;;;;6.73;4.07;;;;;;;16.53;43.89;100591.59;5082990;28;20805;-78
2021/10/25 10:38:13;;;;;;;6.17;4.20;;;;;;;16.54;44.69;100588.72;5082607;28;20984;-79
2021/10/25 10:40:42;;;;;;;5.70;3.77;;;;;;;16.99;44.04;100591.00;5082159;28;20460;-79
2021/10/25 10:43:11;;;;;;;4.77;3.77;;;;;;;17.58;42.45;100585.97;5083184;28;20428;-78
2021/10/25 10:45:38;;;;;;;3.70;3.40;;;;;;;18.06;42.38;100593.97;5082039;28;20468;-78
2021/10/25 10:48:05;;;;;;;5.77;3.87;;;;;;;18.58;41.38;100585.03;5082992;28;20503;-79
2021/10/25 10:50:42;;;;;;;5.77;4.00;;;;;;;17.80;41.37;100583.50;5082025;28;20467;-80
2021/10/25 10:53:11;;;;;;;5.83;3.53;;;;;;;16.89;43.11;100583.09;5083070;28;20806;-79
2021/10/25 10:55:41;;;;;;;4.60;4.20;;;;;;;17.36;42.65;100589.47;5082562;28;20468;-78
2021/10/25 10:58:27;;;;;;;7.33;3.50;;;;;;;16.63;44.73;100583.28;5083440;28;20529;-79
2021/10/25 11:01:05;;;;;;;4.30;3.40;;;;;;;17.44;43.56;100575.94;5081192;28;20468;-79
2021/10/25 11:03:33;;;;;;;6.13;3.77;;;;;;;16.74;44.54;100581.09;5082579;28;20949;-79
2021/10/25 11:06:02;;;;;;;5.47;4.00;;;;;;;16.73;44.43;100573.16;5082210;28;20525;-79
2021/10/25 11:08:31;;;;;;;9.10;3.70;;;;;;;17.92;42.14;100576.66;5065199;28;20487;-78
2021/10/25 11:11:00;;;;;;;5.43;3.73;;;;;;;19.15;40.19;100583.59;5061594;28;20504;-79
2021/10/25 11:13:30;;;;;;;8.20;4.40;;;;;;;18.21;40.92;100573.22;5073457;28;20668;-79
2021/10/25 11:16:01;;;;;;;7.70;3.20;;;;;;;18.29;40.69;100577.72;5081277;28;20478;-78
2021/10/25 11:18:29;;;;;;;5.53;3.63;;;;;;;17.05;43.68;100574.94;5082013;28;20542;-79
2021/10/25 11:21:17;;;;;;;5.80;3.80;;;;;;;16.54;44.50;100577.94;5079095;28;20540;-78
2021/10/25 11:23:48;;;;;;;5.20;4.10;;;;;;;17.07;43.96;100585.56;5062027;28;20447;-79
2021/10/25 11:26:18;;;;;;;6.57;4.33;;;;;;;16.72;43.98;100577.72;5062133;28;20538;-79
2021/10/25 11:29:00;;;;;;;5.80;3.87;;;;;;;17.85;43.77;100586.50;5062975;28;20449;-79
2021/10/25 11:31:27;;;;;;;5.87;3.93;;;;;;;17.73;43.10;100582.53;5064894;28;21025;-78
2021/10/25 11:33:54;;;;;;;6.70;3.60;;;;;;;17.60;43.86;100577.69;5063527;28;20457;-79
2021/10/25 11:36:28;;;;;;;5.10;3.50;;;;;;;17.45;42.89;100578.47;5061250;28;20508;-79
2021/10/25 11:38:55;;;;;;;6.10;3.40;;;;;;;17.48;43.68;100572.72;5062258;28;20516;-79
2021/10/25 11:41:21;;;;;;;5.70;3.03;;;;;;;16.92;43.88;100570.06;5060964;28;20500;-81
2021/10/25 11:43:48;;;;;;;3.77;3.07;;;;;;;16.26;45.64;100573.91;5061964;28;20476;-80
2021/10/25 11:46:17;;;;;;;5.13;3.27;;;;;;;17.58;43.81;100564.34;5061405;28;20476;-79
2021/10/25 11:48:51;;;;;;;4.33;3.93;;;;;;;15.91;45.89;100565.16;5061358;28;20474;-79
2021/10/25 11:51:18;;;;;;;4.00;3.00;;;;;;;16.88;44.36;100554.41;5060671;28;20506;-79
2021/10/25 11:53:46;;;;;;;6.47;3.10;;;;;;;17.44;43.45;100563.25;5062218;28;20523;-79
2021/10/25 11:56:14;;;;;;;4.33;2.70;;;;;;;17.81;42.87;100566.22;5061425;28;20564;-79
2021/10/25 11:58:41;;;;;;;3.93;3.07;;;;;;;17.44;41.99;100549.75;5061383;28;20466;-80
2021/10/25 12:01:13;;;;;;;7.00;3.80;;;;;;;16.59;44.87;100552.28;5060802;28;20476;-78
2021/10/25 12:03:40;;;;;;;192.13;59.47;;;;;;;17.55;42.86;100553.91;5061515;28;20468;-78
2021/10/25 12:06:14;;;;;;;4.83;3.47;;;;;;;16.59;44.78;100549.56;5068768;28;20496;-78
2021/10/25 12:08:40;;;;;;;3.87;3.17;;;;;;;16.96;44.20;100543.59;5062593;28;20433;-79
2021/10/25 12:11:09;;;;;;;3.80;3.40;;;;;;;17.25;43.49;100540.22;5060965;28;20501;-79
2021/10/25 12:13:35;;;;;;;4.97;3.50;;;;;;;17.63;44.07;100537.63;5073581;28;20540;-79
2021/10/25 12:16:04;;;;;;;6.03;3.90;;;;;;;16.30;45.14;100542.88;5081131;28;20495;-78
2021/10/25 12:18:31;;;;;;;6.80;3.50;;;;;;;15.57;47.43;100547.22;5084117;28;20488;-79
2021/10/25 12:21:08;;;;;;;3.90;3.03;;;;;;;15.83;47.83;100547.09;5084256;28;21019;-79
2021/10/25 12:23:46;;;;;;;6.93;4.07;;;;;;;15.80;47.66;100542.91;5086175;28;20427;-79
2021/10/25 12:26:16;;;;;;;4.50;3.27;;;;;;;15.50;48.34;100536.28;5085479;28;20482;-78
2021/10/25 12:28:42;;;;;;;8.97;3.50;;;;;;;15.74;47.82;100532.75;5075782;28;20903;-79
2021/10/25 12:31:11;;;;;;;4.47;4.07;;;;;;;15.43;48.75;100538.78;5044937;28;20478;-79
2021/10/25 12:33:39;;;;;;;3.40;3.03;;;;;;;15.67;48.53;100530.91;5064177;28;20980;-79
2021/10/25 12:36:11;;;;;;;4.27;3.43;;;;;;;15.56;49.55;100532.91;5079326;28;20495;-81
2021/10/25 12:38:40;;;;;;;5.23;3.30;;;;;;;15.70;49.46;100534.09;5065543;28;20496;-78
2021/10/25 12:41:07;;;;;;;5.90;3.73;;;;;;;15.96;49.21;100531.28;5064147;28;20535;-79
2021/10/25 12:43:40;;;;;;;3.73;3.40;;;;;;;15.56;49.60;100537.47;5064759;28;20520;-79
2021/10/25 12:46:09;;;;;;;4.03;3.30;;;;;;;15.26;49.78;100523.59;5065073;28;20473;-79
2021/10/25 12:48:41;;;;;;;6.67;3.40;;;;;;;15.70;50.07;100519.78;5064979;28;20459;-80
2021/10/25 12:51:08;;;;;;;5.07;3.80;;;;;;;15.24;49.40;100523.75;5063700;28;20499;-78